Time,TemperatureF,DewpointF,PressureIn,WindDirection,WindDirectionDegrees,WindSpeedMPH,WindSpeedGustMPH,Humidity,HourlyPrecipIn,Conditions,Clouds,dailyrainin,SoftwareType,DateUTC
2013-01-29 11:31:00,95.0,74.6,29.41,SSW,202,2.9,2.9,52,0.00,,,0.00,VWS V14.01,2013-01-29 01:31:00,
2013-01-29 11:32:00,95.0,74.6,29.41,North,360,4.3,4.3,52,0.00,,,0.00,VWS V14.01,2013-01-29 01:32:00,
2013-01-29 11:33:00,95.0,73.5,29.41,SSE,158,2.9,4.3,50,0.00,,,0.00,VWS V14.01,2013-01-29 01:33:00,
2013-01-29 11:35:00,95.0,74.1,29.41,North,360,1.6,2.0,51,0.00,,,0.00,VWS V14.01,2013-01-29 01:35:00,
2013-01-29 11:40:00,95.0,74.1,29.41,WNW,292,2.5,5.4,51,0.00,,,0.00,VWS V14.01,2013-01-29 01:40:00,
2013-01-29 11:45:00,95.4,75.0,29.41,WSW,248,2.5,2.5,52,0.00,,,0.00,VWS V14.01,2013-01-29 01:45:00,
2013-01-29 11:50:00,95.5,72.7,29.41,WNW,292,4.3,4.3,48,0.00,,,0.00,VWS V14.01,2013-01-29 01:50:00,
2013-01-29 11:55:00,95.9,73.7,29.41,WSW,248,3.6,3.6,49,0.00,,,0.00,VWS V14.01,2013-01-29 01:55:00,
2013-01-29 12:00:00,95.9,72.4,29.41,SSW,202,12.5,12.5,47,0.00,,,0.00,VWS V14.01,2013-01-29 02:00:00,
2013-01-29 12:05:00,95.7,71.0,29.41,WNW,292,2.0,4.3,45,0.00,,,0.00,VWS V14.01,2013-01-29 02:05:00,
2013-01-29 12:10:00,96.1,72.6,29.41,West,270,2.7,2.7,47,0.00,,,0.00,VWS V14.01,2013-01-29 02:10:00,
2013-01-29 12:15:00,96.4,73.6,29.41,West,270,1.1,1.1,48,0.00,,,0.00,VWS V14.01,2013-01-29 02:15:00,
2013-01-29 12:20:00,96.6,71.1,29.41,WSW,248,2.0,4.0,44,0.00,,,0.00,VWS V14.01,2013-01-29 02:20:00,
2013-01-29 12:25:00,97.0,72.1,29.41,NNW,338,2.5,2.5,45,0.00,,,0.00,VWS V14.01,2013-01-29 02:25:00,
2013-01-29 12:30:00,97.2,70.3,29.41,SW,225,2.9,3.8,42,0.00,,,0.00,VWS V14.01,2013-01-29 02:30:00,
2013-01-29 12:35:00,97.3,71.8,29.41,NE,45,2.5,3.4,44,0.00,,,0.00,VWS V14.01,2013-01-29 02:35:00,
2013-01-29 12:40:00,97.7,71.4,29.41,NW,315,2.0,2.5,43,0.00,,,0.00,VWS V14.01,2013-01-29 02:40:00,
2013-01-29 12:46:00,97.9,70.9,29.38,SW,225,4.9,6.3,42,0.00,,,0.00,VWS V14.01,2013-01-29 02:46:00,
2013-01-29 12:51:00,98.2,72.6,29.38,NW,315,2.5,2.7,44,0.00,,,0.00,VWS V14.01,2013-01-29 02:51:00,
2013-01-29 12:56:00,98.6,72.2,29.38,SSW,202,4.0,4.0,43,0.00,,,0.00,VWS V14.01,2013-01-29 02:56:00,
2013-01-29 13:01:00,99.0,71.2,29.38,SE,135,7.6,7.6,41,0.00,,,0.00,VWS V14.01,2013-01-29 03:01:00,
2013-01-29 13:06:00,98.8,71.7,29.38,South,180,3.8,5.6,42,0.00,,,0.00,VWS V14.01,2013-01-29 03:06:00,
2013-01-29 13:11:00,99.0,72.6,29.38,SE,135,2.7,2.7,43,0.00,,,0.00,VWS V14.01,2013-01-29 03:11:00,
2013-01-29 13:16:00,99.1,72.7,29.38,SW,225,2.0,2.9,43,0.00,,,0.00,VWS V14.01,2013-01-29 03:16:00,
2013-01-29 13:21:00,99.0,71.9,29.38,NW,315,1.6,8.7,42,0.00,,,0.00,VWS V14.01,2013-01-29 03:21:00,
2013-01-29 13:26:00,99.3,72.2,29.38,SE,135,4.3,4.3,42,0.00,,,0.00,VWS V14.01,2013-01-29 03:26:00,
2013-01-29 13:31:00,99.5,72.4,29.38,South,180,6.3,6.3,42,0.00,,,0.00,VWS V14.01,2013-01-29 03:31:00,
2013-01-29 13:36:00,99.5,71.6,29.38,SSW,202,2.5,2.5,41,0.00,,,0.00,VWS V14.01,2013-01-29 03:36:00,
2013-01-29 13:41:00,99.5,71.6,29.38,SSW,202,3.6,3.6,41,0.00,,,0.00,VWS V14.01,2013-01-29 03:41:00,
2013-01-29 13:46:00,99.7,71.8,29.38,WSW,248,0.0,2.2,41,0.00,,,0.00,VWS V14.01,2013-01-29 03:46:00,
2013-01-29 13:51:00,99.7,72.5,29.38,WSW,248,7.4,7.4,42,0.00,,,0.00,VWS V14.01,2013-01-29 03:51:00,
2013-01-29 13:56:00,99.9,72.7,29.38,SW,225,3.1,3.1,42,0.00,,,0.00,VWS V14.01,2013-01-29 03:56:00,
2013-01-29 14:01:00,100.4,73.2,29.35,NW,315,2.7,2.7,42,0.00,,,0.00,VWS V14.01,2013-01-29 04:01:00,
2013-01-29 14:07:00,100.4,72.4,29.35,WSW,248,3.6,4.3,41,0.00,,,0.00,VWS V14.01,2013-01-29 04:07:00,
2013-01-29 14:12:00,100.2,73.0,29.35,SSW,202,6.3,6.3,42,0.00,,,0.00,VWS V14.01,2013-01-29 04:12:00,
2013-01-29 14:17:00,100.2,71.6,29.35,WSW,248,9.8,9.8,40,0.00,,,0.00,VWS V14.01,2013-01-29 04:17:00,
2013-01-29 14:22:00,100.4,72.4,29.35,WSW,248,3.1,3.1,41,0.00,,,0.00,VWS V14.01,2013-01-29 04:22:00,
2013-01-29 14:27:00,100.6,71.1,29.35,North,360,6.5,6.5,39,0.00,,,0.00,VWS V14.01,2013-01-29 04:27:00,
2013-01-29 14:32:00,100.6,71.9,29.35,West,270,2.0,2.0,40,0.00,,,0.00,VWS V14.01,2013-01-29 04:32:00,
2013-01-29 14:37:00,100.8,72.0,29.35,NW,315,1.3,1.3,40,0.00,,,0.00,VWS V14.01,2013-01-29 04:37:00,
2013-01-29 14:42:00,101.1,71.6,29.35,NW,315,4.3,4.3,39,0.00,,,0.00,VWS V14.01,2013-01-29 04:42:00,
2013-01-29 14:47:00,100.8,70.5,29.32,NW,315,2.9,7.4,38,0.00,,,0.00,VWS V14.01,2013-01-29 04:47:00,
2013-01-29 14:52:00,100.9,71.4,29.32,NNW,338,2.9,2.9,39,0.00,,,0.00,VWS V14.01,2013-01-29 04:52:00,
2013-01-29 14:57:00,101.1,71.6,29.32,West,270,5.6,5.6,39,0.00,,,0.00,VWS V14.01,2013-01-29 04:57:00,
2013-01-29 15:00:00,101.1,70.8,29.32,WNW,292,2.7,4.9,38,0.00,,,0.00,VWS V14.01,2013-01-29 05:00:00,
2013-01-29 15:02:00,101.1,70.8,29.32,West,270,3.6,3.6,38,0.00,,,0.00,VWS V14.01,2013-01-29 05:02:00,
2013-01-29 15:03:00,101.1,70.8,29.32,SSW,202,6.5,6.5,38,0.00,,,0.00,VWS V14.01,2013-01-29 05:03:00,
2013-01-29 15:08:00,101.3,71.0,29.32,WNW,292,2.9,2.9,38,0.00,,,0.00,VWS V14.01,2013-01-29 05:08:00,
2013-01-29 15:13:00,101.3,70.2,29.32,South,180,2.7,2.7,37,0.00,,,0.00,VWS V14.01,2013-01-29 05:13:00,
2013-01-29 15:18:00,101.5,70.4,29.32,NNW,338,5.8,5.8,37,0.00,,,0.00,VWS V14.01,2013-01-29 05:18:00,
2013-01-29 15:24:00,101.5,69.6,29.32,SW,225,3.6,4.3,36,0.00,,,0.00,VWS V14.01,2013-01-29 05:24:00,
2013-01-29 15:29:00,101.5,69.6,29.32,WNW,292,3.4,4.3,36,0.00,,,0.00,VWS V14.01,2013-01-29 05:29:00,
2013-01-29 15:34:00,101.3,69.4,29.32,WSW,248,3.8,6.5,36,0.00,,,0.00,VWS V14.01,2013-01-29 05:34:00,
2013-01-29 15:39:00,101.3,69.4,29.32,West,270,2.5,2.5,36,0.00,,,0.00,VWS V14.01,2013-01-29 05:39:00,
2013-01-29 15:44:00,101.5,69.6,29.32,West,270,3.8,3.8,36,0.00,,,0.00,VWS V14.01,2013-01-29 05:44:00,
2013-01-29 15:49:00,101.7,68.9,29.32,SSW,202,3.8,3.8,35,0.00,,,0.00,VWS V14.01,2013-01-29 05:49:00,
2013-01-29 15:54:00,101.5,69.6,29.32,WSW,248,1.6,3.1,36,0.00,,,0.00,VWS V14.01,2013-01-29 05:54:00,
2013-01-29 15:59:00,101.5,68.8,29.32,SW,225,5.4,5.4,35,0.00,,,0.00,VWS V14.01,2013-01-29 05:59:00,
2013-01-29 16:04:00,101.7,69.7,29.32,WNW,292,4.0,4.0,36,0.00,,,0.00,VWS V14.01,2013-01-29 06:04:00,
2013-01-29 16:09:00,101.5,69.6,29.32,West,270,6.3,6.3,36,0.00,,,0.00,VWS V14.01,2013-01-29 06:09:00,
2013-01-29 16:14:00,101.5,68.8,29.32,SW,225,2.9,2.9,35,0.00,,,0.00,VWS V14.01,2013-01-29 06:14:00,
2013-01-29 16:19:00,101.7,68.9,29.32,NNW,338,7.2,7.2,35,0.00,,,0.00,VWS V14.01,2013-01-29 06:19:00,
2013-01-29 16:24:00,101.5,69.6,29.32,SW,225,2.7,3.8,36,0.00,,,0.00,VWS V14.01,2013-01-29 06:24:00,
2013-01-29 16:29:00,100.9,69.1,29.32,West,270,5.8,5.8,36,0.00,,,0.00,VWS V14.01,2013-01-29 06:29:00,
2013-01-29 16:34:00,100.6,68.8,29.32,West,270,2.0,2.7,36,0.00,,,0.00,VWS V14.01,2013-01-29 06:34:00,
2013-01-29 16:39:00,100.4,68.6,29.32,South,180,3.1,3.1,36,0.00,,,0.00,VWS V14.01,2013-01-29 06:39:00,
2013-01-29 16:44:00,100.0,69.1,29.32,SSW,202,19.0,19.0,37,0.00,,,0.00,VWS V14.01,2013-01-29 06:44:00,
2013-01-29 16:49:00,99.3,66.9,29.32,SW,225,3.1,3.1,35,0.00,,,0.00,VWS V14.01,2013-01-29 06:49:00,
2013-01-29 16:54:00,99.1,67.5,29.32,SSE,158,6.5,6.5,36,0.00,,,0.00,VWS V14.01,2013-01-29 06:54:00,
2013-01-29 16:59:00,98.6,67.8,29.32,SSE,158,5.4,5.4,37,0.00,,,0.00,VWS V14.01,2013-01-29 06:59:00,
2013-01-29 17:04:00,98.1,70.4,29.32,SE,135,8.7,8.7,41,0.00,,,0.00,VWS V14.01,2013-01-29 07:04:00,
2013-01-29 17:10:00,97.3,70.4,29.32,SE,135,1.6,3.1,42,0.00,,,0.00,VWS V14.01,2013-01-29 07:10:00,
2013-01-29 17:15:00,96.8,69.9,29.35,ESE,112,0.9,4.0,42,0.00,,,0.00,VWS V14.01,2013-01-29 07:15:00,
2013-01-29 17:20:00,96.8,70.6,29.35,SW,225,0.9,1.3,43,0.00,,,0.00,VWS V14.01,2013-01-29 07:20:00,
2013-01-29 17:25:00,96.4,71.0,29.35,WNW,292,1.1,2.0,44,0.00,,,0.00,VWS V14.01,2013-01-29 07:25:00,
2013-01-29 17:30:00,96.1,70.7,29.35,WNW,292,0.0,1.1,44,0.00,,,0.00,VWS V14.01,2013-01-29 07:30:00,
2013-01-29 17:35:00,96.1,71.3,29.35,North,360,0.0,0.0,45,0.00,,,0.00,VWS V14.01,2013-01-29 07:35:00,
2013-01-29 17:40:00,96.3,72.8,29.35,NE,45,0.0,2.0,47,0.00,,,0.00,VWS V14.01,2013-01-29 07:40:00,
2013-01-29 17:45:00,95.9,73.7,29.35,North,360,2.7,2.7,49,0.00,,,0.00,VWS V14.01,2013-01-29 07:45:00,
2013-01-29 17:50:00,95.4,74.4,29.35,NNE,22,3.8,3.8,51,0.00,,,0.00,VWS V14.01,2013-01-29 07:50:00,
2013-01-29 17:55:00,95.2,74.8,29.35,North,360,0.0,0.0,52,0.00,,,0.00,VWS V14.01,2013-01-29 07:55:00,
2013-01-29 18:00:00,94.6,75.4,29.35,North,360,1.1,2.2,54,0.00,,,0.00,VWS V14.01,2013-01-29 08:00:00,
2013-01-29 18:05:00,94.5,75.8,29.35,NE,45,0.0,2.0,55,0.00,,,0.00,VWS V14.01,2013-01-29 08:05:00,
2013-01-29 18:10:00,94.3,76.2,29.35,NNE,22,1.3,1.3,56,0.00,,,0.00,VWS V14.01,2013-01-29 08:10:00,
2013-01-29 18:15:00,93.7,76.2,29.38,North,360,1.1,3.8,57,0.00,,,0.00,VWS V14.01,2013-01-29 08:15:00,
2013-01-29 18:20:00,93.7,76.7,29.38,NNE,22,2.0,2.0,58,0.00,,,0.00,VWS V14.01,2013-01-29 08:20:00,
2013-01-29 18:25:00,93.6,76.6,29.38,North,360,2.0,2.0,58,0.00,,,0.00,VWS V14.01,2013-01-29 08:25:00,
2013-01-29 18:30:00,92.8,76.9,29.38,North,360,2.5,2.5,60,0.00,,,0.00,VWS V14.01,2013-01-29 08:30:00,
2013-01-29 18:35:00,93.0,77.1,29.38,North,360,2.9,2.9,60,0.00,,,0.00,VWS V14.01,2013-01-29 08:35:00,
2013-01-29 18:41:00,92.7,77.2,29.38,NNE,22,0.0,0.0,61,0.00,,,0.00,VWS V14.01,2013-01-29 08:41:00,
2013-01-29 18:46:00,92.5,77.6,29.38,North,360,2.0,2.2,62,0.00,,,0.00,VWS V14.01,2013-01-29 08:46:00,
2013-01-29 18:51:00,92.3,77.9,29.38,North,360,0.0,0.0,63,0.00,,,0.00,VWS V14.01,2013-01-29 08:51:00,
2013-01-29 18:56:00,92.1,77.7,29.38,SE,135,0.0,0.0,63,0.00,,,0.00,VWS V14.01,2013-01-29 08:56:00,
2013-01-29 19:01:00,91.8,77.8,29.41,NNE,22,0.0,0.0,64,0.00,,,0.00,VWS V14.01,2013-01-29 09:01:00,
2013-01-29 19:06:00,91.6,77.7,29.41,SE,135,0.0,0.0,64,0.00,,,0.00,VWS V14.01,2013-01-29 09:06:00,
2013-01-29 19:11:00,91.4,77.0,29.41,West,270,1.6,1.6,63,0.00,,,0.00,VWS V14.01,2013-01-29 09:11:00,
2013-01-29 19:16:00,91.2,76.4,29.41,West,270,0.0,0.0,62,0.00,,,0.00,VWS V14.01,2013-01-29 09:16:00,
2013-01-29 19:21:00,91.0,76.2,29.41,West,270,1.6,1.6,62,0.00,,,0.00,VWS V14.01,2013-01-29 09:21:00,
2013-01-29 19:26:00,91.2,76.9,29.41,SW,225,7.4,7.4,63,0.00,,,0.00,VWS V14.01,2013-01-29 09:26:00,
2013-01-29 19:31:00,90.0,75.2,29.44,South,180,4.0,4.0,62,0.00,,,0.00,VWS V14.01,2013-01-29 09:31:00,
2013-01-29 19:36:00,89.6,74.4,29.44,WSW,248,0.0,1.6,61,0.00,,,0.00,VWS V14.01,2013-01-29 09:36:00,
2013-01-29 19:41:00,89.6,75.3,29.44,NW,315,0.0,0.0,63,0.00,,,0.00,VWS V14.01,2013-01-29 09:41:00,
2013-01-29 19:46:00,89.4,75.6,29.41,NW,315,1.3,1.3,64,0.00,,,0.00,VWS V14.01,2013-01-29 09:46:00,
2013-01-29 19:51:00,89.4,76.1,29.41,SW,225,0.0,0.0,65,0.00,,,0.00,VWS V14.01,2013-01-29 09:51:00,
2013-01-29 19:56:00,89.1,76.2,29.41,SW,225,2.7,2.7,66,0.00,,,0.00,VWS V14.01,2013-01-29 09:56:00,
2013-01-29 20:01:00,88.7,75.9,29.41,SSE,158,4.3,4.3,66,0.00,,,0.00,VWS V14.01,2013-01-29 10:01:00,
2013-01-29 20:06:00,87.4,74.2,29.41,ESE,112,5.6,5.6,65,0.00,,,0.00,VWS V14.01,2013-01-29 10:06:00,
2013-01-29 20:11:00,86.9,73.7,29.41,SSE,158,4.9,6.5,65,0.00,,,0.00,VWS V14.01,2013-01-29 10:11:00,
2013-01-29 20:16:00,86.2,73.0,29.44,SW,225,2.9,4.9,65,0.00,,,0.00,VWS V14.01,2013-01-29 10:16:00,
2013-01-29 20:22:00,86.2,73.0,29.44,WSW,248,2.7,4.3,65,0.00,,,0.00,VWS V14.01,2013-01-29 10:22:00,
2013-01-29 20:27:00,85.1,72.9,29.44,South,180,7.4,7.4,67,0.00,,,0.00,VWS V14.01,2013-01-29 10:27:00,
2013-01-29 20:32:00,84.9,72.8,29.44,South,180,7.2,8.5,67,0.00,,,0.00,VWS V14.01,2013-01-29 10:32:00,
2013-01-29 20:37:00,84.9,72.8,29.44,South,180,3.8,3.8,67,0.00,,,0.00,VWS V14.01,2013-01-29 10:37:00,
2013-01-29 20:42:00,85.5,73.3,29.44,SSE,158,4.9,4.9,67,0.00,,,0.00,VWS V14.01,2013-01-29 10:42:00,
2013-01-29 20:47:00,85.6,72.5,29.44,SSE,158,9.8,9.8,65,0.00,,,0.00,VWS V14.01,2013-01-29 10:47:00,
2013-01-29 20:52:00,86.2,71.6,29.44,SE,135,6.3,8.1,62,0.00,,,0.00,VWS V14.01,2013-01-29 10:52:00,
2013-01-29 20:57:00,86.9,70.4,29.44,SSE,158,1.1,2.9,58,0.00,,,0.00,VWS V14.01,2013-01-29 10:57:00,
2013-01-29 21:02:00,87.3,71.2,29.44,North,360,5.8,5.8,59,0.00,,,0.00,VWS V14.01,2013-01-29 11:02:00,
2013-01-29 21:07:00,87.1,72.0,29.44,North,360,0.0,0.0,61,0.00,,,0.00,VWS V14.01,2013-01-29 11:07:00,
2013-01-29 21:12:00,87.1,72.5,29.44,South,180,3.1,3.1,62,0.00,,,0.00,VWS V14.01,2013-01-29 11:12:00,
2013-01-29 21:17:00,86.9,71.3,29.44,SW,225,6.5,6.5,60,0.00,,,0.00,VWS V14.01,2013-01-29 11:17:00,
2013-01-29 21:22:00,86.5,71.0,29.44,SSE,158,0.9,0.9,60,0.00,,,0.00,VWS V14.01,2013-01-29 11:22:00,
2013-01-29 21:27:00,86.5,71.0,29.44,SSE,158,3.8,3.8,60,0.00,,,0.00,VWS V14.01,2013-01-29 11:27:00,
2013-01-29 21:32:00,85.8,71.3,29.44,SSE,158,4.7,4.7,62,0.00,,,0.00,VWS V14.01,2013-01-29 11:32:00,
2013-01-29 21:37:00,85.3,70.8,29.44,South,180,4.3,4.3,62,0.00,,,0.00,VWS V14.01,2013-01-29 11:37:00,
2013-01-29 21:42:00,85.5,71.4,29.44,SE,135,4.9,4.9,63,0.00,,,0.00,VWS V14.01,2013-01-29 11:42:00,
2013-01-29 21:47:00,84.9,70.9,29.44,SW,225,2.2,2.2,63,0.00,,,0.00,VWS V14.01,2013-01-29 11:47:00,
2013-01-29 21:52:00,85.1,71.1,29.44,South,180,3.4,3.4,63,0.00,,,0.00,VWS V14.01,2013-01-29 11:52:00,
2013-01-29 21:58:00,84.7,71.2,29.44,SSE,158,2.9,2.9,64,0.00,,,0.00,VWS V14.01,2013-01-29 11:58:00,
2013-01-29 22:03:00,84.6,71.5,29.44,East,90,1.1,1.6,65,0.00,,,0.00,VWS V14.01,2013-01-29 12:03:00,
2013-01-29 22:08:00,84.4,71.3,29.44,South,180,3.1,3.4,65,0.00,,,0.00,VWS V14.01,2013-01-29 12:08:00,
2013-01-29 22:13:00,84.2,71.2,29.44,SE,135,2.5,2.5,65,0.00,,,0.00,VWS V14.01,2013-01-29 12:13:00,
2013-01-29 22:18:00,84.4,71.8,29.44,ESE,112,2.0,3.1,66,0.00,,,0.00,VWS V14.01,2013-01-29 12:18:00,
2013-01-29 22:23:00,84.2,71.2,29.44,SE,135,3.8,3.8,65,0.00,,,0.00,VWS V14.01,2013-01-29 12:23:00,
2013-01-29 22:28:00,84.0,71.4,29.44,SE,135,0.0,0.0,66,0.00,,,0.00,VWS V14.01,2013-01-29 12:28:00,
2013-01-29 22:33:00,84.0,71.4,29.44,SE,135,2.2,2.2,66,0.00,,,0.00,VWS V14.01,2013-01-29 12:33:00,
2013-01-29 22:38:00,84.2,71.6,29.44,WSW,248,4.3,4.3,66,0.00,,,0.00,VWS V14.01,2013-01-29 12:38:00,
2013-01-29 22:43:00,83.8,71.7,29.44,SW,225,0.0,0.0,67,0.00,,,0.00,VWS V14.01,2013-01-29 12:43:00,
2013-01-29 22:48:00,84.0,71.9,29.44,SW,225,3.4,3.4,67,0.00,,,0.00,VWS V14.01,2013-01-29 12:48:00,
2013-01-29 22:53:00,83.8,72.2,29.44,SSE,158,0.0,2.5,68,0.00,,,0.00,VWS V14.01,2013-01-29 12:53:00,
2013-01-29 22:59:00,83.8,72.2,29.44,SE,135,0.0,1.6,68,0.00,,,0.00,VWS V14.01,2013-01-29 12:59:00,
2013-01-29 23:04:00,83.8,72.2,29.44,SSE,158,2.0,2.2,68,0.00,,,0.00,VWS V14.01,2013-01-29 13:04:00,
2013-01-29 23:09:00,83.3,71.6,29.44,SE,135,1.6,1.6,68,0.00,,,0.00,VWS V14.01,2013-01-29 13:09:00,
2013-01-29 23:14:00,83.3,71.6,29.44,SSW,202,0.0,0.0,68,0.00,,,0.00,VWS V14.01,2013-01-29 13:14:00,
2013-01-29 23:19:00,83.3,71.6,29.44,SSW,202,1.6,1.6,68,0.00,,,0.00,VWS V14.01,2013-01-29 13:19:00,
2013-01-29 23:24:00,83.1,71.5,29.44,ESE,112,0.0,0.0,68,0.00,,,0.00,VWS V14.01,2013-01-29 13:24:00,
2013-01-29 23:29:00,83.1,71.9,29.44,SE,135,3.1,3.1,69,0.00,,,0.00,VWS V14.01,2013-01-29 13:29:00,
2013-01-29 23:34:00,83.1,71.9,29.44,SSW,202,2.0,2.0,69,0.00,,,0.00,VWS V14.01,2013-01-29 13:34:00,
2013-01-29 23:39:00,82.9,71.7,29.44,SW,225,1.3,3.1,69,0.00,,,0.00,VWS V14.01,2013-01-29 13:39:00,
2013-01-29 23:44:00,83.1,72.3,29.44,SSW,202,0.0,0.0,70,0.00,,,0.00,VWS V14.01,2013-01-29 13:44:00,
2013-01-29 23:49:00,82.8,72.0,29.44,SW,225,2.9,2.9,70,0.00,,,0.00,VWS V14.01,2013-01-29 13:49:00,
2013-01-29 23:54:00,82.6,71.8,29.44,SE,135,2.5,2.5,70,0.00,,,0.00,VWS V14.01,2013-01-29 13:54:00,
2013-01-29 23:59:00,82.8,72.4,29.44,SSW,202,1.3,1.3,71,0.00,,,0.00,VWS V14.01,2013-01-29 13:59:00,